Welkom op de weersite van Veghel e.o.

Het einde van de zomer naderd.

Echter op 26 augustus 2e hittegolf genoteerd.

Maar wat zegd dat? In 2018 noteerde we er 1 en die was 18 dagen.


Webcam Veghel  Webcam Veghel


Onweer radar Meer informatie blitzortung!


Regen radar Meer informatie rain snow radar


U vindt ons ook hier:

Het Weer Aktueel

European Weather Network

Weather Underground

Benelux Weer Netwerk

AWEKAS


Het weer levert geen direct gevaar op.    Er zijn geen waarschuwingen afgegeven.

METAR rapporten vliegvelden

   
EHAM - Amsterdam
Gewijzigd: 17-09-2019 12:55
Licht bewolkt  
Licht bewolkt  
   Wind: WNW 29.6 km/h
Wind: WNW 29.6 km/h
Temperatuur: 17°C
Dauwpunt: 9°C
Vochtigheid: 59%
Barometer: 1021 hPa
Bewolking: Few Clouds
Zicht: meer dan 10 km
Bewolking: Licht bewolkt 3400 ft
EHAM 171055Z 30016KT 270V330 9999 FEW034 17/09 Q1021 NOSIG
EHEH - Eindhoven
Gewijzigd: 17-09-2019 12:25
Bewolking  
Bewolking  
   Wind: Westen 14.8 km/h
Wind: Westen 14.8 km/h
Temperatuur: 17°C
Dauwpunt: 8°C
Vochtigheid: 56%
Barometer: 1022 hPa
Bewolking: Overcast
Zicht: meer dan 10 km
Bewolking: Grotendeels bewolkt 3400 ft,
Grotendeels bewolkt 3900 ft,
Bewolking 4400 ft
EHEH 171025Z AUTO 27008KT 200V300 9999 BKN034 BKN039 OVC044 17/08 Q1022 BLU 27008KT 9999 FEW026 SCT040 BKN300 BECMG 31010KT
EHGR - Gilze/Rijen
Gewijzigd: 17-09-2019 12:55
Grotendeels bewolkt  
Grotendeels bewolkt  
   Wind: Westen 18.5 km/h
Wind: Westen 18.5 km/h
Temperatuur: 17°C
Dauwpunt: 9°C
Vochtigheid: 59%
Barometer: 1022 hPa
Bewolking: Mostly Cloudy
Zicht: meer dan 10 km
Bewolking: Gedeeltelijk bewolkt 3100 ft,
Grotendeels bewolkt 3600 ft,
Grotendeels bewolkt 4200 ft
EHGR 171055Z AUTO 28010KT 250V310 9999 SCT031 BKN036 BKN042 17/09 Q1022 BLU 27010KT 9999 SCT032 BKN045
EHBK - Maastricht
Gewijzigd: 17-09-2019 12:55
Bewolking  
Bewolking  
   Wind: WNW 9.3 km/h
Wind: WNW 9.3 km/h
Temperatuur: 16°C
Dauwpunt: 9°C
Vochtigheid: 63%
Barometer: 1022 hPa
Bewolking: Overcast
Zicht: meer dan 10 km
Bewolking: Gedeeltelijk bewolkt 3300 ft,
Bewolking 3700 ft
EHBK 171055Z AUTO 30005KT 230V360 9999 SCT033 OVC037 16/09 Q1022 NOSIG
EHVK - Volkel
Gewijzigd: 17-09-2019 12:55
Bewolking  
Bewolking  
   Wind: Westen 14.8 km/h
Wind: Westen 14.8 km/h
Temperatuur: 16°C
Dauwpunt: 9°C
Vochtigheid: 63%
Barometer: 1021 hPa
Bewolking: Overcast
Zicht: meer dan 10 km
Bewolking: Licht bewolkt 2900 ft,
Grotendeels bewolkt 3900 ft,
Bewolking 4400 ft
EHVK 171055Z AUTO 27008KT 230V310 9999 FEW029 BKN039 OVC044 16/09 Q1021 BLU 27009KT 9999 FEW028 BKN045 TEMPO 32011G21KT
EHFS - Vlissingen
Gewijzigd: 17-09-2019 12:25
Gedeeltelijk bewolkt  
Gedeeltelijk bewolkt  
   Wind: WNW 22.2 km/h
Wind: WNW 22.2 km/h
Temperatuur: 17°C
Dauwpunt: 9°C
Vochtigheid: 59%
Barometer: 1023 hPa
Bewolking: Partly Cloudy
Zicht: meer dan 10 km
Bewolking: Gedeeltelijk bewolkt 3800 ft
EHFS 171025Z AUTO 29012KT 260V320 9999 SCT038/// 17/09 Q1023 W///H///

Script ontwikkeld door  Saratoga-weather.org Aangepast voor de template door  Weerstation Leuven

Apparatuur in gebruik:

Weerstation
Davis VP2

Weerprogramma
WeatherLink

Weercomputer
Sponsor

Webleverancier
My provider

Davis VP2

WeatherLink

Sponsor

My provider